sensor_id;sensor_type;location;lat;lon;timestamp;temperature;humidity
55711;DHT22;41612;51.994;5.880;2022-12-13T00:01:25;-3275.10;83.60
55711;DHT22;41612;51.994;5.880;2022-12-13T00:03:53;-3275.10;83.60
55711;DHT22;41612;51.994;5.880;2022-12-13T00:06:19;-3275.10;83.60
55711;DHT22;41612;51.994;5.880;2022-12-13T00:08:44;-3275.10;83.60
55711;DHT22;41612;51.994;5.880;2022-12-13T00:11:12;-3275.10;83.70
55711;DHT22;41612;51.994;5.880;2022-12-13T00:13:39;-3275.10;83.70
55711;DHT22;41612;51.994;5.880;2022-12-13T00:16:07;-3275.10;83.80
55711;DHT22;41612;51.994;5.880;2022-12-13T00:18:34;-3275.10;83.70
55711;DHT22;41612;51.994;5.880;2022-12-13T00:21:13;-3275.10;83.70
55711;DHT22;41612;51.994;5.880;2022-12-13T00:23:39;-3275.10;83.70
55711;DHT22;41612;51.994;5.880;2022-12-13T00:26:08;-3275.10;83.80
55711;DHT22;41612;51.994;5.880;2022-12-13T00:28:35;-3275.10;83.80
55711;DHT22;41612;51.994;5.880;2022-12-13T00:33:57;-3275.10;83.80
55711;DHT22;41612;51.994;5.880;2022-12-13T00:36:32;-3275.00;83.90
55711;DHT22;41612;51.994;5.880;2022-12-13T00:38:57;-3275.00;83.90
55711;DHT22;41612;51.994;5.880;2022-12-13T00:41:32;-3275.00;84.00
55711;DHT22;41612;51.994;5.880;2022-12-13T00:44:01;-3275.00;84.20
55711;DHT22;41612;51.994;5.880;2022-12-13T00:46:28;-3275.00;84.30
55711;DHT22;41612;51.994;5.880;2022-12-13T00:48:58;-3275.00;84.40
55711;DHT22;41612;51.994;5.880;2022-12-13T00:51:29;-3275.00;84.50
55711;DHT22;41612;51.994;5.880;2022-12-13T00:53:56;-3274.90;84.40
55711;DHT22;41612;51.994;5.880;2022-12-13T00:56:24;-3274.90;84.50
55711;DHT22;41612;51.994;5.880;2022-12-13T00:58:57;-3275.00;84.50
55711;DHT22;41612;51.994;5.880;2022-12-13T01:01:28;-3275.00;84.40
55711;DHT22;41612;51.994;5.880;2022-12-13T01:03:56;-3274.90;84.30
55711;DHT22;41612;51.994;5.880;2022-12-13T01:06:34;-3275.00;84.30
55711;DHT22;41612;51.994;5.880;2022-12-13T01:09:03;-3275.00;84.30
55711;DHT22;41612;51.994;5.880;2022-12-13T01:11:31;-3274.90;84.30
55711;DHT22;41612;51.994;5.880;2022-12-13T01:13:57;-3274.90;84.30
55711;DHT22;41612;51.994;5.880;2022-12-13T01:16:23;-3275.00;84.20
55711;DHT22;41612;51.994;5.880;2022-12-13T01:18:49;-3274.90;84.10
55711;DHT22;41612;51.994;5.880;2022-12-13T01:21:17;-3274.90;84.10
55711;DHT22;41612;51.994;5.880;2022-12-13T01:23:44;-3274.90;84.10
55711;DHT22;41612;51.994;5.880;2022-12-13T01:26:15;-3274.90;84.10
55711;DHT22;41612;51.994;5.880;2022-12-13T01:28:42;-3274.90;84.10
55711;DHT22;41612;51.994;5.880;2022-12-13T01:31:11;-3274.90;84.20
55711;DHT22;41612;51.994;5.880;2022-12-13T01:33:37;-3274.90;84.30
55711;DHT22;41612;51.994;5.880;2022-12-13T01:36:06;-3274.90;84.20
55711;DHT22;41612;51.994;5.880;2022-12-13T01:38:32;-3274.90;84.20
55711;DHT22;41612;51.994;5.880;2022-12-13T01:40:58;-3274.90;84.20
55711;DHT22;41612;51.994;5.880;2022-12-13T01:43:27;-3274.80;84.10
55711;DHT22;41612;51.994;5.880;2022-12-13T01:45:53;-3274.80;84.10
55711;DHT22;41612;51.994;5.880;2022-12-13T01:48:25;-3274.80;84.00
55711;DHT22;41612;51.994;5.880;2022-12-13T01:50:57;-3274.80;84.00
55711;DHT22;41612;51.994;5.880;2022-12-13T01:53:29;-3274.80;83.90
55711;DHT22;41612;51.994;5.880;2022-12-13T01:56:06;-3274.80;84.00
55711;DHT22;41612;51.994;5.880;2022-12-13T01:58:33;-3274.80;83.90
55711;DHT22;41612;51.994;5.880;2022-12-13T02:01:00;-3274.80;83.90
55711;DHT22;41612;51.994;5.880;2022-12-13T02:03:26;-3274.80;84.00
55711;DHT22;41612;51.994;5.880;2022-12-13T02:08:19;-3274.80;84.10
55711;DHT22;41612;51.994;5.880;2022-12-13T02:10:46;-3274.80;84.10
55711;DHT22;41612;51.994;5.880;2022-12-13T02:13:14;-3274.70;84.00
55711;DHT22;41612;51.994;5.880;2022-12-13T02:21:33;-3274.70;83.90
55711;DHT22;41612;51.994;5.880;2022-12-13T02:27:18;-3274.70;84.00
55711;DHT22;41612;51.994;5.880;2022-12-13T02:30:08;-3274.70;84.00
55711;DHT22;41612;51.994;5.880;2022-12-13T02:40:53;-3274.60;84.00
55711;DHT22;41612;51.994;5.880;2022-12-13T02:43:28;-3274.60;84.10
55711;DHT22;41612;51.994;5.880;2022-12-13T02:45:58;-3274.60;84.10
55711;DHT22;41612;51.994;5.880;2022-12-13T02:48:31;-3274.60;84.10
55711;DHT22;41612;51.994;5.880;2022-12-13T02:50:59;-3274.60;84.00
55711;DHT22;41612;51.994;5.880;2022-12-13T02:53:27;-3274.60;84.00
55711;DHT22;41612;51.994;5.880;2022-12-13T02:55:54;-3274.60;84.00
55711;DHT22;41612;51.994;5.880;2022-12-13T02:58:29;-3274.60;84.00
55711;DHT22;41612;51.994;5.880;2022-12-13T03:01:25;-3274.60;83.90
55711;DHT22;41612;51.994;5.880;2022-12-13T03:06:50;-3274.60;84.00
55711;DHT22;41612;51.994;5.880;2022-12-13T03:12:50;-3274.60;83.90
55711;DHT22;41612;51.994;5.880;2022-12-13T03:15:46;-3274.50;83.90
55711;DHT22;41612;51.994;5.880;2022-12-13T03:18:19;-3274.50;83.90
55711;DHT22;41612;51.994;5.880;2022-12-13T03:20:57;-3274.50;83.90
55711;DHT22;41612;51.994;5.880;2022-12-13T03:23:24;-3274.60;84.00
55711;DHT22;41612;51.994;5.880;2022-12-13T03:25:56;-3274.50;84.00
55711;DHT22;41612;51.994;5.880;2022-12-13T03:28:26;-3274.50;84.00
55711;DHT22;41612;51.994;5.880;2022-12-13T03:30:52;-3274.50;84.00
55711;DHT22;41612;51.994;5.880;2022-12-13T03:33:18;-3274.50;84.00
55711;DHT22;41612;51.994;5.880;2022-12-13T03:35:44;-3274.50;84.00
55711;DHT22;41612;51.994;5.880;2022-12-13T03:38:12;-3274.50;83.90
55711;DHT22;41612;51.994;5.880;2022-12-13T03:40:39;-3274.50;84.00
55711;DHT22;41612;51.994;5.880;2022-12-13T03:43:05;-3274.50;84.00
55711;DHT22;41612;51.994;5.880;2022-12-13T03:45:30;-3274.50;84.00
55711;DHT22;41612;51.994;5.880;2022-12-13T03:47:56;-3274.50;84.00
55711;DHT22;41612;51.994;5.880;2022-12-13T03:50:22;-3274.50;83.90
55711;DHT22;41612;51.994;5.880;2022-12-13T03:52:48;-3274.50;83.90
55711;DHT22;41612;51.994;5.880;2022-12-13T03:55:17;-3274.50;83.90
55711;DHT22;41612;51.994;5.880;2022-12-13T03:57:46;-3274.50;83.90
55711;DHT22;41612;51.994;5.880;2022-12-13T04:00:12;-3274.50;83.90
55711;DHT22;41612;51.994;5.880;2022-12-13T04:02:39;-3274.50;83.80
55711;DHT22;41612;51.994;5.880;2022-12-13T04:05:08;-3274.40;83.80
55711;DHT22;41612;51.994;5.880;2022-12-13T04:07:33;-3274.40;83.80
55711;DHT22;41612;51.994;5.880;2022-12-13T04:09:59;-3274.40;83.90
55711;DHT22;41612;51.994;5.880;2022-12-13T04:12:25;-3274.40;83.90
55711;DHT22;41612;51.994;5.880;2022-12-13T04:15:09;-3274.50;84.00
55711;DHT22;41612;51.994;5.880;2022-12-13T04:17:35;-3274.50;84.00
55711;DHT22;41612;51.994;5.880;2022-12-13T04:20:04;-3274.50;84.00
55711;DHT22;41612;51.994;5.880;2022-12-13T04:22:30;-3274.40;84.00
55711;DHT22;41612;51.994;5.880;2022-12-13T04:24:56;-3274.50;84.00
55711;DHT22;41612;51.994;5.880;2022-12-13T04:27:21;-3274.40;84.10
55711;DHT22;41612;51.994;5.880;2022-12-13T04:29:47;-3274.40;84.20
55711;DHT22;41612;51.994;5.880;2022-12-13T04:32:13;-3274.40;84.20
55711;DHT22;41612;51.994;5.880;2022-12-13T04:34:39;-3274.40;84.20
55711;DHT22;41612;51.994;5.880;2022-12-13T04:37:04;-3274.50;84.20
55711;DHT22;41612;51.994;5.880;2022-12-13T04:39:30;-3274.40;84.20
55711;DHT22;41612;51.994;5.880;2022-12-13T04:41:56;-3274.40;84.20
55711;DHT22;41612;51.994;5.880;2022-12-13T04:44:22;-3274.40;84.20
55711;DHT22;41612;51.994;5.880;2022-12-13T04:46:48;-3274.40;84.20
55711;DHT22;41612;51.994;5.880;2022-12-13T04:49:14;-3274.40;84.20
55711;DHT22;41612;51.994;5.880;2022-12-13T04:51:39;-3274.40;84.20
55711;DHT22;41612;51.994;5.880;2022-12-13T04:54:05;-3274.40;84.30
55711;DHT22;41612;51.994;5.880;2022-12-13T04:56:34;-3274.40;84.30
55711;DHT22;41612;51.994;5.880;2022-12-13T04:59:00;-3274.40;84.30
55711;DHT22;41612;51.994;5.880;2022-12-13T05:01:26;-3274.40;84.30
55711;DHT22;41612;51.994;5.880;2022-12-13T05:03:51;-3274.40;84.40
55711;DHT22;41612;51.994;5.880;2022-12-13T05:06:17;-3274.40;84.30
55711;DHT22;41612;51.994;5.880;2022-12-13T05:08:43;-3274.40;84.30
55711;DHT22;41612;51.994;5.880;2022-12-13T05:11:12;-3274.40;84.30
55711;DHT22;41612;51.994;5.880;2022-12-13T05:13:38;-3274.40;84.30
55711;DHT22;41612;51.994;5.880;2022-12-13T05:16:05;-3274.30;84.30
55711;DHT22;41612;51.994;5.880;2022-12-13T05:18:34;-3274.30;84.40
55711;DHT22;41612;51.994;5.880;2022-12-13T05:21:05;-3274.30;84.50
55711;DHT22;41612;51.994;5.880;2022-12-13T05:23:34;-3274.30;84.50
55711;DHT22;41612;51.994;5.880;2022-12-13T05:26:03;-3274.30;84.60
55711;DHT22;41612;51.994;5.880;2022-12-13T05:28:30;-3274.30;84.60
55711;DHT22;41612;51.994;5.880;2022-12-13T05:31:04;-3274.30;84.60
55711;DHT22;41612;51.994;5.880;2022-12-13T05:33:33;-3274.30;84.70
55711;DHT22;41612;51.994;5.880;2022-12-13T05:35:59;-3274.20;84.70
55711;DHT22;41612;51.994;5.880;2022-12-13T05:38:28;-3274.30;84.70
55711;DHT22;41612;51.994;5.880;2022-12-13T05:40:54;-3274.20;84.70
55711;DHT22;41612;51.994;5.880;2022-12-13T05:43:20;-3274.20;84.70
55711;DHT22;41612;51.994;5.880;2022-12-13T05:45:46;-3274.20;84.70
55711;DHT22;41612;51.994;5.880;2022-12-13T05:48:12;-3274.20;84.70
55711;DHT22;41612;51.994;5.880;2022-12-13T05:50:37;-3274.20;84.70
55711;DHT22;41612;51.994;5.880;2022-12-13T05:53:06;-3274.20;84.70
55711;DHT22;41612;51.994;5.880;2022-12-13T05:55:32;-3274.20;84.80
55711;DHT22;41612;51.994;5.880;2022-12-13T05:57:58;-3274.20;84.80
55711;DHT22;41612;51.994;5.880;2022-12-13T06:00:25;-3274.20;84.90
55711;DHT22;41612;51.994;5.880;2022-12-13T06:02:51;-3274.20;84.80
55711;DHT22;41612;51.994;5.880;2022-12-13T06:05:17;-3274.20;84.80
55711;DHT22;41612;51.994;5.880;2022-12-13T06:07:43;-3274.20;84.80
55711;DHT22;41612;51.994;5.880;2022-12-13T06:10:09;-3274.20;84.80
55711;DHT22;41612;51.994;5.880;2022-12-13T06:12:37;-3274.20;84.80
55711;DHT22;41612;51.994;5.880;2022-12-13T06:15:10;-3274.20;84.80
55711;DHT22;41612;51.994;5.880;2022-12-13T06:17:36;-3274.20;84.80
55711;DHT22;41612;51.994;5.880;2022-12-13T06:20:03;-3274.10;84.90
55711;DHT22;41612;51.994;5.880;2022-12-13T06:22:32;-3274.10;84.90
55711;DHT22;41612;51.994;5.880;2022-12-13T06:25:00;-3274.10;84.90
55711;DHT22;41612;51.994;5.880;2022-12-13T06:27:26;-3274.10;84.90
55711;DHT22;41612;51.994;5.880;2022-12-13T06:29:57;-3274.20;85.00
55711;DHT22;41612;51.994;5.880;2022-12-13T06:32:23;-3274.10;85.00
55711;DHT22;41612;51.994;5.880;2022-12-13T06:34:57;-3274.10;84.90
55711;DHT22;41612;51.994;5.880;2022-12-13T06:37:23;-3274.10;84.90
55711;DHT22;41612;51.994;5.880;2022-12-13T06:39:49;-3274.10;84.90
55711;DHT22;41612;51.994;5.880;2022-12-13T06:42:16;-3274.10;85.00
55711;DHT22;41612;51.994;5.880;2022-12-13T06:44:45;-3274.10;85.00
55711;DHT22;41612;51.994;5.880;2022-12-13T06:47:11;-3274.10;85.00
55711;DHT22;41612;51.994;5.880;2022-12-13T06:49:37;-3274.10;85.00
55711;DHT22;41612;51.994;5.880;2022-12-13T06:52:03;-3274.10;85.00
55711;DHT22;41612;51.994;5.880;2022-12-13T06:54:29;-3274.10;85.00
55711;DHT22;41612;51.994;5.880;2022-12-13T06:56:58;-3274.10;85.10
55711;DHT22;41612;51.994;5.880;2022-12-13T06:59:27;-3274.10;85.00
55711;DHT22;41612;51.994;5.880;2022-12-13T07:01:52;-3274.10;85.00
55711;DHT22;41612;51.994;5.880;2022-12-13T07:04:21;-3274.10;85.00
55711;DHT22;41612;51.994;5.880;2022-12-13T07:06:50;-3274.10;85.00
55711;DHT22;41612;51.994;5.880;2022-12-13T07:09:19;-3274.00;84.90
55711;DHT22;41612;51.994;5.880;2022-12-13T07:12:10;-3274.10;85.00
55711;DHT22;41612;51.994;5.880;2022-12-13T07:14:35;-3274.10;85.00
55711;DHT22;41612;51.994;5.880;2022-12-13T07:17:04;-3274.00;85.00
55711;DHT22;41612;51.994;5.880;2022-12-13T07:19:58;-3274.00;85.00
55711;DHT22;41612;51.994;5.880;2022-12-13T07:22:26;-3274.00;85.20
55711;DHT22;41612;51.994;5.880;2022-12-13T07:24:52;-3274.00;85.20
55711;DHT22;41612;51.994;5.880;2022-12-13T07:27:20;-3274.00;85.20
55711;DHT22;41612;51.994;5.880;2022-12-13T07:29:46;-3274.00;85.20
55711;DHT22;41612;51.994;5.880;2022-12-13T07:32:13;-3274.00;85.30
55711;DHT22;41612;51.994;5.880;2022-12-13T07:34:41;-3274.00;85.30
55711;DHT22;41612;51.994;5.880;2022-12-13T07:37:08;-3274.00;85.30
55711;DHT22;41612;51.994;5.880;2022-12-13T07:39:34;-3274.00;85.40
55711;DHT22;41612;51.994;5.880;2022-12-13T07:42:02;-3274.00;85.40
55711;DHT22;41612;51.994;5.880;2022-12-13T07:44:28;-3274.00;85.40
55711;DHT22;41612;51.994;5.880;2022-12-13T07:46:54;-3274.00;85.30
55711;DHT22;41612;51.994;5.880;2022-12-13T07:49:20;-3274.10;85.30
55711;DHT22;41612;51.994;5.880;2022-12-13T07:51:49;-3274.00;85.30
55711;DHT22;41612;51.994;5.880;2022-12-13T07:54:21;-3274.00;85.20
55711;DHT22;41612;51.994;5.880;2022-12-13T07:56:54;-3274.10;85.30
55711;DHT22;41612;51.994;5.880;2022-12-13T07:59:28;-3274.10;85.30
55711;DHT22;41612;51.994;5.880;2022-12-13T08:01:57;-3274.10;85.30
55711;DHT22;41612;51.994;5.880;2022-12-13T08:04:45;-3274.10;85.40
55711;DHT22;41612;51.994;5.880;2022-12-13T08:07:16;-3274.10;85.30
55711;DHT22;41612;51.994;5.880;2022-12-13T08:09:44;-3274.10;85.30
55711;DHT22;41612;51.994;5.880;2022-12-13T08:12:10;-3274.10;85.30
55711;DHT22;41612;51.994;5.880;2022-12-13T08:14:41;-3274.10;85.30
55711;DHT22;41612;51.994;5.880;2022-12-13T08:17:10;-3274.20;85.30
55711;DHT22;41612;51.994;5.880;2022-12-13T08:19:38;-3274.20;85.30
55711;DHT22;41612;51.994;5.880;2022-12-13T08:22:05;-3274.20;85.30
55711;DHT22;41612;51.994;5.880;2022-12-13T08:24:36;-3274.20;85.30
55711;DHT22;41612;51.994;5.880;2022-12-13T08:27:02;-3274.20;85.20
55711;DHT22;41612;51.994;5.880;2022-12-13T08:29:32;-3274.20;85.20
55711;DHT22;41612;51.994;5.880;2022-12-13T08:32:06;-3274.30;85.30
55711;DHT22;41612;51.994;5.880;2022-12-13T08:34:37;-3274.30;85.20
55711;DHT22;41612;51.994;5.880;2022-12-13T08:37:11;-3274.40;85.30
55711;DHT22;41612;51.994;5.880;2022-12-13T08:39:42;-3274.40;85.30
55711;DHT22;41612;51.994;5.880;2022-12-13T08:42:16;-3274.40;85.30
55711;DHT22;41612;51.994;5.880;2022-12-13T08:44:46;-3274.40;85.20
55711;DHT22;41612;51.994;5.880;2022-12-13T08:47:12;-3274.50;85.10
55711;DHT22;41612;51.994;5.880;2022-12-13T08:49:39;-3274.50;85.00
55711;DHT22;41612;51.994;5.880;2022-12-13T08:52:08;-3274.60;85.00
55711;DHT22;41612;51.994;5.880;2022-12-13T08:54:34;-3274.60;84.90
55711;DHT22;41612;51.994;5.880;2022-12-13T08:57:00;-3274.60;84.80
55711;DHT22;41612;51.994;5.880;2022-12-13T08:59:26;-3274.70;84.80
55711;DHT22;41612;51.994;5.880;2022-12-13T09:01:52;-3274.70;84.70
55711;DHT22;41612;51.994;5.880;2022-12-13T09:04:21;-3274.80;84.70
55711;DHT22;41612;51.994;5.880;2022-12-13T09:06:50;-3274.90;84.60
55711;DHT22;41612;51.994;5.880;2022-12-13T09:09:15;-3274.90;84.40
55711;DHT22;41612;51.994;5.880;2022-12-13T09:11:44;-3275.00;84.30
55711;DHT22;41612;51.994;5.880;2022-12-13T09:14:15;-3275.10;84.40
55711;DHT22;41612;51.994;5.880;2022-12-13T09:16:44;-3275.10;84.30
55711;DHT22;41612;51.994;5.880;2022-12-13T09:19:18;-3275.30;84.30
55711;DHT22;41612;51.994;5.880;2022-12-13T09:21:47;-3275.40;84.00
55711;DHT22;41612;51.994;5.880;2022-12-13T09:24:13;-3275.60;83.80
55711;DHT22;41612;51.994;5.880;2022-12-13T09:26:47;-3275.80;83.30
55711;DHT22;41612;51.994;5.880;2022-12-13T09:29:15;-3275.90;82.90
55711;DHT22;41612;51.994;5.880;2022-12-13T09:31:42;-3276.10;82.70
55711;DHT22;41612;51.994;5.880;2022-12-13T09:34:12;-3276.20;82.10
55711;DHT22;41612;51.994;5.880;2022-12-13T09:36:38;-3276.20;81.50
55711;DHT22;41612;51.994;5.880;2022-12-13T09:39:16;-3276.30;81.40
55711;DHT22;41612;51.994;5.880;2022-12-13T09:41:50;-3276.40;79.40
55711;DHT22;41612;51.994;5.880;2022-12-13T09:46:54;-3276.60;79.30
55711;DHT22;41612;51.994;5.880;2022-12-13T09:49:37;-3276.60;79.40
55711;DHT22;41612;51.994;5.880;2022-12-13T09:52:13;-3276.70;78.70
55711;DHT22;41612;51.994;5.880;2022-12-13T09:54:40;-3276.70;78.20
55711;DHT22;41612;51.994;5.880;2022-12-13T09:57:24;-3276.70;78.50
55711;DHT22;41612;51.994;5.880;2022-12-13T09:59:53;0.00;78.30
55711;DHT22;41612;51.994;5.880;2022-12-13T10:02:46;0.20;77.90
55711;DHT22;41612;51.994;5.880;2022-12-13T10:07:59;0.50;76.10
55711;DHT22;41612;51.994;5.880;2022-12-13T10:10:26;0.50;75.60
55711;DHT22;41612;51.994;5.880;2022-12-13T10:16:00;0.50;75.60
55711;DHT22;41612;51.994;5.880;2022-12-13T10:18:33;0.30;75.50
55711;DHT22;41612;51.994;5.880;2022-12-13T10:21:35;0.50;76.10
55711;DHT22;41612;51.994;5.880;2022-12-13T10:24:24;0.80;75.80
55711;DHT22;41612;51.994;5.880;2022-12-13T10:27:13;0.90;75.30
55711;DHT22;41612;51.994;5.880;2022-12-13T10:32:27;1.00;74.10
55711;DHT22;41612;51.994;5.880;2022-12-13T10:34:56;1.10;74.00
55711;DHT22;41612;51.994;5.880;2022-12-13T10:37:29;1.10;73.90
55711;DHT22;41612;51.994;5.880;2022-12-13T10:40:00;1.00;72.60
55711;DHT22;41612;51.994;5.880;2022-12-13T10:42:29;1.00;73.30
55711;DHT22;41612;51.994;5.880;2022-12-13T10:45:14;1.00;73.60
55711;DHT22;41612;51.994;5.880;2022-12-13T10:47:48;1.10;73.30
55711;DHT22;41612;51.994;5.880;2022-12-13T10:50:26;1.00;73.20
55711;DHT22;41612;51.994;5.880;2022-12-13T10:52:53;1.10;72.80
55711;DHT22;41612;51.994;5.880;2022-12-13T10:55:27;1.10;72.50
55711;DHT22;41612;51.994;5.880;2022-12-13T10:58:00;1.00;72.30
55711;DHT22;41612;51.994;5.880;2022-12-13T11:00:43;0.80;72.60
55711;DHT22;41612;51.994;5.880;2022-12-13T11:03:29;0.80;73.00
55711;DHT22;41612;51.994;5.880;2022-12-13T11:06:03;0.80;73.20
55711;DHT22;41612;51.994;5.880;2022-12-13T11:08:33;0.70;72.20
55711;DHT22;41612;51.994;5.880;2022-12-13T11:11:04;0.60;72.80
55711;DHT22;41612;51.994;5.880;2022-12-13T11:13:45;0.50;72.90
55711;DHT22;41612;51.994;5.880;2022-12-13T11:16:31;0.50;73.10
55711;DHT22;41612;51.994;5.880;2022-12-13T11:19:04;0.50;73.50
55711;DHT22;41612;51.994;5.880;2022-12-13T11:21:38;0.70;73.20
55711;DHT22;41612;51.994;5.880;2022-12-13T11:24:33;0.70;72.90
55711;DHT22;41612;51.994;5.880;2022-12-13T11:27:27;0.80;73.10
55711;DHT22;41612;51.994;5.880;2022-12-13T11:35:56;0.60;72.00
55711;DHT22;41612;51.994;5.880;2022-12-13T11:44:05;0.50;72.70
55711;DHT22;41612;51.994;5.880;2022-12-13T11:46:45;0.60;72.90
55711;DHT22;41612;51.994;5.880;2022-12-13T11:49:43;0.80;73.00
55711;DHT22;41612;51.994;5.880;2022-12-13T11:52:43;1.00;72.70
55711;DHT22;41612;51.994;5.880;2022-12-13T11:55:39;1.10;72.20
55711;DHT22;41612;51.994;5.880;2022-12-13T12:01:34;1.30;71.50
55711;DHT22;41612;51.994;5.880;2022-12-13T12:04:05;1.50;70.50
55711;DHT22;41612;51.994;5.880;2022-12-13T12:07:03;1.50;69.90
55711;DHT22;41612;51.994;5.880;2022-12-13T12:09:48;1.40;69.80
55711;DHT22;41612;51.994;5.880;2022-12-13T12:12:37;1.30;70.10
55711;DHT22;41612;51.994;5.880;2022-12-13T12:15:47;1.30;69.80
55711;DHT22;41612;51.994;5.880;2022-12-13T12:18:25;1.40;70.20
55711;DHT22;41612;51.994;5.880;2022-12-13T12:24:11;1.80;70.60
55711;DHT22;41612;51.994;5.880;2022-12-13T12:27:23;2.00;69.20
55711;DHT22;41612;51.994;5.880;2022-12-13T12:32:52;2.00;67.90
55711;DHT22;41612;51.994;5.880;2022-12-13T12:44:23;1.90;68.50
55711;DHT22;41612;51.994;5.880;2022-12-13T12:50:02;1.90;68.00
55711;DHT22;41612;51.994;5.880;2022-12-13T12:55:29;2.10;68.70
55711;DHT22;41612;51.994;5.880;2022-12-13T13:00:48;2.20;68.10
55711;DHT22;41612;51.994;5.880;2022-12-13T13:03:22;2.00;67.60
55711;DHT22;41612;51.994;5.880;2022-12-13T13:05:55;1.90;67.80
55711;DHT22;41612;51.994;5.880;2022-12-13T13:11:02;1.70;68.00
55711;DHT22;41612;51.994;5.880;2022-12-13T13:16:53;1.70;67.60
55711;DHT22;41612;51.994;5.880;2022-12-13T13:19:39;1.50;67.80
55711;DHT22;41612;51.994;5.880;2022-12-13T13:22:27;1.40;67.80
55711;DHT22;41612;51.994;5.880;2022-12-13T13:27:39;1.50;67.90
55711;DHT22;41612;51.994;5.880;2022-12-13T13:32:48;1.50;67.80
55711;DHT22;41612;51.994;5.880;2022-12-13T13:38:03;1.40;67.70
55711;DHT22;41612;51.994;5.880;2022-12-13T13:40:59;1.30;69.10
55711;DHT22;41612;51.994;5.880;2022-12-13T13:43:40;1.30;69.00
55711;DHT22;41612;51.994;5.880;2022-12-13T13:46:18;1.20;69.10
55711;DHT22;41612;51.994;5.880;2022-12-13T13:49:03;1.20;69.40
55711;DHT22;41612;51.994;5.880;2022-12-13T13:52:06;1.10;69.60
55711;DHT22;41612;51.994;5.880;2022-12-13T14:04:04;0.80;70.80
55711;DHT22;41612;51.994;5.880;2022-12-13T14:10:34;0.60;71.60
55711;DHT22;41612;51.994;5.880;2022-12-13T14:16:23;0.50;71.20
55711;DHT22;41612;51.994;5.880;2022-12-13T14:31:23;0.50;73.10
55711;DHT22;41612;51.994;5.880;2022-12-13T14:34:03;0.40;73.20
55711;DHT22;41612;51.994;5.880;2022-12-13T14:36:39;0.30;72.90
55711;DHT22;41612;51.994;5.880;2022-12-13T14:39:31;0.30;73.20
55711;DHT22;41612;51.994;5.880;2022-12-13T14:42:50;0.30;74.30
55711;DHT22;41612;51.994;5.880;2022-12-13T14:45:29;0.20;74.00
55711;DHT22;41612;51.994;5.880;2022-12-13T14:48:15;0.20;74.40
55711;DHT22;41612;51.994;5.880;2022-12-13T14:50:47;0.10;74.80
55711;DHT22;41612;51.994;5.880;2022-12-13T14:53:38;0.00;74.70
55711;DHT22;41612;51.994;5.880;2022-12-13T14:56:14;0.00;74.30
55711;DHT22;41612;51.994;5.880;2022-12-13T14:59:02;0.00;75.00
55711;DHT22;41612;51.994;5.880;2022-12-13T15:01:41;-3276.70;75.00
55711;DHT22;41612;51.994;5.880;2022-12-13T15:04:32;-3276.70;74.90
55711;DHT22;41612;51.994;5.880;2022-12-13T15:07:09;-3276.60;74.90
55711;DHT22;41612;51.994;5.880;2022-12-13T15:10:03;-3276.60;75.10
55711;DHT22;41612;51.994;5.880;2022-12-13T15:15:30;-3276.50;74.90
55711;DHT22;41612;51.994;5.880;2022-12-13T15:18:19;-3276.40;75.20
55711;DHT22;41612;51.994;5.880;2022-12-13T15:20:58;-3276.40;75.30
55711;DHT22;41612;51.994;5.880;2022-12-13T15:23:33;-3276.40;76.20
55711;DHT22;41612;51.994;5.880;2022-12-13T15:26:17;-3276.40;77.20
55711;DHT22;41612;51.994;5.880;2022-12-13T15:28:58;-3276.40;78.40
55711;DHT22;41612;51.994;5.880;2022-12-13T15:31:30;-3276.40;78.90
55711;DHT22;41612;51.994;5.880;2022-12-13T15:37:30;-3276.30;78.50
55711;DHT22;41612;51.994;5.880;2022-12-13T15:40:06;-3276.30;78.90
55711;DHT22;41612;51.994;5.880;2022-12-13T15:42:38;-3276.30;79.00
55711;DHT22;41612;51.994;5.880;2022-12-13T15:45:23;-3276.30;80.10
55711;DHT22;41612;51.994;5.880;2022-12-13T15:47:59;-3276.30;80.10
55711;DHT22;41612;51.994;5.880;2022-12-13T15:50:38;-3276.30;80.30
55711;DHT22;41612;51.994;5.880;2022-12-13T15:53:25;-3276.30;80.50
55711;DHT22;41612;51.994;5.880;2022-12-13T15:55:57;-3276.20;80.40
55711;DHT22;41612;51.994;5.880;2022-12-13T15:58:26;-3276.20;80.30
55711;DHT22;41612;51.994;5.880;2022-12-13T16:00:55;-3276.20;80.30
55711;DHT22;41612;51.994;5.880;2022-12-13T16:03:25;-3276.20;80.50
55711;DHT22;41612;51.994;5.880;2022-12-13T16:06:02;-3276.20;80.00
55711;DHT22;41612;51.994;5.880;2022-12-13T16:08:43;-3276.10;79.80
55711;DHT22;41612;51.994;5.880;2022-12-13T16:11:26;-3276.10;79.50
55711;DHT22;41612;51.994;5.880;2022-12-13T16:14:48;-3276.10;79.30
55711;DHT22;41612;51.994;5.880;2022-12-13T16:17:27;-3276.10;79.40
55711;DHT22;41612;51.994;5.880;2022-12-13T16:19:56;-3276.10;79.10
55711;DHT22;41612;51.994;5.880;2022-12-13T16:22:27;-3276.10;79.00
55711;DHT22;41612;51.994;5.880;2022-12-13T16:24:53;-3276.10;79.00
55711;DHT22;41612;51.994;5.880;2022-12-13T16:27:21;-3276.00;78.70
55711;DHT22;41612;51.994;5.880;2022-12-13T16:29:46;-3276.00;79.40
55711;DHT22;41612;51.994;5.880;2022-12-13T16:32:15;-3276.00;79.40
55711;DHT22;41612;51.994;5.880;2022-12-13T16:34:49;-3276.00;79.80
55711;DHT22;41612;51.994;5.880;2022-12-13T16:37:20;-3276.00;80.50
55711;DHT22;41612;51.994;5.880;2022-12-13T16:39:57;-3276.00;80.60
55711;DHT22;41612;51.994;5.880;2022-12-13T16:42:29;-3276.00;80.40
55711;DHT22;41612;51.994;5.880;2022-12-13T16:45:02;-3276.00;80.40
55711;DHT22;41612;51.994;5.880;2022-12-13T16:47:27;-3276.00;80.40
55711;DHT22;41612;51.994;5.880;2022-12-13T16:50:05;-3276.00;80.70
55711;DHT22;41612;51.994;5.880;2022-12-13T16:52:37;-3276.00;81.20
55711;DHT22;41612;51.994;5.880;2022-12-13T16:55:05;-3276.00;80.80
55711;DHT22;41612;51.994;5.880;2022-12-13T16:57:37;-3275.90;80.90
55711;DHT22;41612;51.994;5.880;2022-12-13T17:00:09;-3275.90;80.90
55711;DHT22;41612;51.994;5.880;2022-12-13T17:02:36;-3276.00;80.90
55711;DHT22;41612;51.994;5.880;2022-12-13T17:05:08;-3275.90;80.90
55711;DHT22;41612;51.994;5.880;2022-12-13T17:07:48;-3275.90;81.50
55711;DHT22;41612;51.994;5.880;2022-12-13T17:10:17;-3275.90;81.70
55711;DHT22;41612;51.994;5.880;2022-12-13T17:12:45;-3275.90;81.90
55711;DHT22;41612;51.994;5.880;2022-12-13T17:15:17;-3275.90;81.90
55711;DHT22;41612;51.994;5.880;2022-12-13T17:17:49;-3275.90;82.00
55711;DHT22;41612;51.994;5.880;2022-12-13T17:20:16;-3275.90;82.00
55711;DHT22;41612;51.994;5.880;2022-12-13T17:22:44;-3275.90;81.70
55711;DHT22;41612;51.994;5.880;2022-12-13T17:25:13;-3275.90;81.60
55711;DHT22;41612;51.994;5.880;2022-12-13T17:27:43;-3275.90;81.70
55711;DHT22;41612;51.994;5.880;2022-12-13T17:30:16;-3275.90;80.90
55711;DHT22;41612;51.994;5.880;2022-12-13T17:32:42;-3275.80;81.10
55711;DHT22;41612;51.994;5.880;2022-12-13T17:35:08;-3275.90;80.90
55711;DHT22;41612;51.994;5.880;2022-12-13T17:37:36;-3275.90;81.00
55711;DHT22;41612;51.994;5.880;2022-12-13T17:40:02;-3275.90;81.20